createdAt,value
2023-01-22T00:01:17.858Z,4.90
2023-01-22T00:03:57.949Z,5.00
2023-01-22T00:06:25.737Z,5.10
2023-01-22T00:08:53.718Z,5.00
2023-01-22T00:11:21.528Z,5.00
2023-01-22T00:13:49.327Z,4.80
2023-01-22T00:16:18.431Z,4.80
2023-01-22T00:18:46.152Z,4.70
2023-01-22T00:21:14.509Z,4.60
2023-01-22T00:23:42.194Z,4.70
2023-01-22T00:26:15.603Z,4.60
2023-01-22T00:28:45.575Z,4.80
2023-01-22T00:31:14.827Z,5.00
2023-01-22T00:33:43.696Z,4.90
2023-01-22T00:36:14.810Z,4.80
2023-01-22T00:38:42.715Z,4.60
2023-01-22T00:41:11.093Z,4.70
2023-01-22T00:43:39.728Z,4.90
2023-01-22T00:46:11.444Z,4.80
2023-01-22T00:48:39.218Z,5.00
2023-01-22T00:51:10.623Z,5.00
2023-01-22T00:53:38.700Z,5.00
2023-01-22T00:56:06.887Z,5.00
2023-01-22T00:58:34.858Z,5.00
2023-01-22T01:01:02.919Z,5.10
2023-01-22T01:03:32.104Z,5.10
2023-01-22T01:06:21.128Z,5.00
2023-01-22T01:08:49.921Z,4.90
2023-01-22T01:11:23.582Z,4.80
2023-01-22T01:13:52.612Z,4.80
2023-01-22T01:16:29.835Z,4.80
2023-01-22T01:19:10.337Z,4.90
2023-01-22T01:21:39.075Z,4.90
2023-01-22T01:24:06.827Z,4.80
2023-01-22T01:26:35.629Z,4.90
2023-01-22T01:29:05.201Z,4.90
2023-01-22T01:31:32.946Z,4.80
2023-01-22T01:34:00.640Z,5.00
2023-01-22T01:36:47.576Z,4.90
2023-01-22T01:39:17.089Z,5.00
2023-01-22T01:41:44.910Z,4.80
2023-01-22T01:44:18.837Z,4.80
2023-01-22T01:47:16.918Z,4.80
2023-01-22T01:49:51.509Z,4.90
2023-01-22T01:52:20.749Z,5.00
2023-01-22T01:54:52.649Z,4.90
2023-01-22T01:57:26.826Z,4.80
2023-01-22T01:59:56.137Z,4.70
2023-01-22T02:02:24.387Z,4.80
2023-01-22T02:04:53.782Z,4.80
2023-01-22T02:07:21.658Z,4.80
2023-01-22T02:10:01.333Z,4.80
2023-01-22T02:12:30.888Z,4.70
2023-01-22T02:14:58.994Z,4.70
2023-01-22T02:17:30.295Z,4.80
2023-01-22T02:19:58.050Z,4.80
2023-01-22T02:22:35.894Z,4.60
2023-01-22T02:25:03.949Z,4.70
2023-01-22T02:27:31.777Z,4.70
2023-01-22T02:29:59.569Z,4.80
2023-01-22T02:32:29.168Z,4.90
2023-01-22T02:34:57.373Z,4.90
2023-01-22T02:37:27.751Z,4.80
2023-01-22T02:39:56.969Z,4.70
2023-01-22T02:42:24.762Z,4.60
2023-01-22T02:44:53.207Z,4.60
2023-01-22T02:47:21.298Z,4.50
2023-01-22T02:49:49.038Z,4.80
2023-01-22T02:52:17.635Z,4.90
2023-01-22T02:54:46.966Z,4.80
2023-01-22T02:57:14.670Z,4.70
2023-01-22T02:59:43.529Z,4.90
2023-01-22T03:02:12.758Z,4.70
2023-01-22T03:04:40.513Z,4.60
2023-01-22T03:07:09.955Z,4.60
2023-01-22T03:09:44.599Z,4.70
2023-01-22T03:12:13.077Z,4.90
2023-01-22T03:14:59.614Z,5.00
2023-01-22T03:17:45.639Z,4.90
2023-01-22T03:20:38.226Z,4.80
2023-01-22T03:23:06.047Z,4.80
2023-01-22T03:25:33.684Z,4.60
2023-01-22T03:28:16.698Z,4.50
2023-01-22T03:30:49.682Z,4.40
2023-01-22T03:33:17.517Z,4.40
2023-01-22T03:35:49.226Z,4.40
2023-01-22T03:38:20.183Z,4.40
2023-01-22T03:40:47.953Z,4.40
2023-01-22T03:43:42.675Z,4.50
2023-01-22T03:46:17.539Z,4.50
2023-01-22T03:48:51.508Z,4.50
2023-01-22T03:51:19.580Z,4.50
2023-01-22T03:53:47.968Z,4.40
2023-01-22T03:56:18.681Z,4.40
2023-01-22T03:58:48.906Z,4.30
2023-01-22T04:01:21.607Z,4.30
2023-01-22T04:03:50.910Z,4.40
2023-01-22T04:06:20.050Z,4.60
2023-01-22T04:08:50.692Z,4.60
2023-01-22T04:11:24.782Z,4.50
2023-01-22T04:13:55.666Z,4.50
2023-01-22T04:16:24.184Z,4.50
2023-01-22T04:19:29.432Z,4.50
2023-01-22T04:22:13.759Z,4.50
2023-01-22T04:24:41.641Z,4.80
2023-01-22T04:27:09.748Z,4.70
2023-01-22T04:29:38.040Z,4.50
2023-01-22T04:32:11.750Z,4.60
2023-01-22T04:35:17.488Z,4.70
2023-01-22T04:37:51.410Z,4.60
2023-01-22T04:40:20.806Z,4.60
2023-01-22T04:42:50.366Z,4.60
2023-01-22T04:45:18.905Z,4.40
2023-01-22T04:47:49.119Z,4.40
2023-01-22T04:50:26.779Z,4.40
2023-01-22T04:52:56.015Z,4.40
2023-01-22T04:55:25.267Z,4.40
2023-01-22T04:58:03.258Z,4.50
2023-01-22T05:00:31.777Z,4.50
2023-01-22T05:03:02.978Z,4.50
2023-01-22T05:05:33.458Z,4.60
2023-01-22T05:08:01.341Z,4.60
2023-01-22T05:10:30.153Z,4.60
2023-01-22T05:13:02.185Z,4.50
2023-01-22T05:15:30.650Z,4.40
2023-01-22T05:18:04.319Z,4.40
2023-01-22T05:20:35.238Z,4.40
2023-01-22T05:23:02.995Z,4.40
2023-01-22T05:25:32.072Z,4.40
2023-01-22T05:28:00.062Z,4.40
2023-01-22T05:30:48.987Z,4.50
2023-01-22T05:33:29.688Z,4.50
2023-01-22T05:36:01.768Z,4.40
2023-01-22T05:38:30.580Z,4.40
2023-01-22T05:40:59.791Z,4.40
2023-01-22T05:43:31.647Z,4.40
2023-01-22T05:46:05.034Z,4.50
2023-01-22T05:48:48.023Z,4.60
2023-01-22T05:51:25.949Z,4.50
2023-01-22T05:54:01.323Z,4.50
2023-01-22T05:56:32.488Z,4.40
2023-01-22T05:59:00.211Z,4.50
2023-01-22T06:01:27.881Z,4.50
2023-01-22T06:03:58.435Z,4.60
2023-01-22T06:06:27.058Z,4.70
2023-01-22T06:08:56.087Z,4.80
2023-01-22T06:11:26.088Z,4.80
2023-01-22T06:13:53.788Z,4.80
2023-01-22T06:16:54.247Z,4.80
2023-01-22T06:19:48.115Z,4.80
2023-01-22T06:22:19.439Z,4.90
2023-01-22T06:24:57.243Z,5.00
2023-01-22T06:27:30.788Z,5.10
2023-01-22T06:30:01.591Z,5.10
2023-01-22T06:32:30.070Z,5.20
2023-01-22T06:34:59.708Z,5.20
2023-01-22T06:37:27.455Z,5.20
2023-01-22T06:39:55.087Z,5.20
2023-01-22T06:42:27.411Z,5.20
2023-01-22T06:44:56.984Z,5.20
2023-01-22T06:47:27.625Z,5.20
2023-01-22T06:49:56.059Z,5.30
2023-01-22T06:52:24.476Z,5.30
2023-01-22T06:54:54.512Z,5.30
2023-01-22T06:57:25.208Z,5.30
2023-01-22T06:59:53.374Z,5.20
2023-01-22T07:02:21.161Z,5.10
2023-01-22T07:04:49.028Z,5.10
2023-01-22T07:07:16.693Z,5.20
2023-01-22T07:09:44.380Z,5.20
2023-01-22T07:12:12.065Z,5.20
2023-01-22T07:14:39.835Z,5.20
2023-01-22T07:17:08.587Z,5.30
2023-01-22T07:19:36.310Z,5.20
2023-01-22T07:22:04.435Z,5.30
2023-01-22T07:24:32.251Z,5.20
2023-01-22T07:27:02.059Z,5.30
2023-01-22T07:29:29.831Z,5.40
2023-01-22T07:31:57.632Z,5.50
2023-01-22T07:34:25.538Z,5.70
2023-01-22T07:36:53.498Z,5.80
2023-01-22T07:39:23.396Z,5.90
2023-01-22T07:41:51.057Z,6.00
2023-01-22T07:44:18.763Z,6.00
2023-01-22T07:46:46.546Z,6.20
2023-01-22T07:49:15.324Z,6.30
2023-01-22T07:51:42.994Z,6.30
2023-01-22T07:54:10.672Z,6.30
2023-01-22T07:56:38.330Z,6.30
2023-01-22T07:59:06.203Z,6.30
2023-01-22T08:01:34.720Z,6.30
2023-01-22T08:04:02.546Z,6.30
2023-01-22T08:06:30.275Z,6.20
2023-01-22T08:08:59.636Z,6.30
2023-01-22T08:11:28.550Z,6.30
2023-01-22T08:13:56.257Z,6.30
2023-01-22T08:16:24.133Z,6.30
2023-01-22T08:18:51.883Z,6.40
2023-01-22T08:21:19.911Z,6.30
2023-01-22T08:23:49.339Z,6.40
2023-01-22T08:26:17.212Z,6.30
2023-01-22T08:28:44.868Z,6.30
2023-01-22T08:31:26.385Z,6.40
2023-01-22T08:33:55.501Z,6.40
2023-01-22T08:36:23.283Z,6.50
2023-01-22T08:38:55.097Z,6.50
2023-01-22T08:41:23.487Z,6.60
2023-01-22T08:43:54.210Z,6.70
2023-01-22T08:46:22.176Z,6.70
2023-01-22T08:48:50.903Z,6.90
2023-01-22T08:51:18.809Z,7.00
2023-01-22T08:53:46.561Z,7.10
2023-01-22T08:56:14.439Z,7.10
2023-01-22T08:58:42.104Z,7.10
2023-01-22T09:01:19.836Z,7.20
2023-01-22T09:03:48.855Z,7.30
2023-01-22T09:06:16.557Z,7.30
2023-01-22T09:08:44.334Z,7.30
2023-01-22T09:11:12.123Z,7.40
2023-01-22T09:13:39.863Z,7.40
2023-01-22T09:16:11.130Z,7.40
2023-01-22T09:18:40.131Z,7.40
2023-01-22T09:21:08.675Z,7.40
2023-01-22T09:23:36.456Z,7.40
2023-01-22T09:26:04.455Z,7.30
2023-01-22T09:28:33.668Z,7.30
2023-01-22T09:31:02.556Z,7.20
2023-01-22T09:33:30.428Z,7.20
2023-01-22T09:36:12.593Z,7.20
2023-01-22T09:38:41.246Z,7.30
2023-01-22T09:41:36.435Z,7.30
2023-01-22T09:44:12.129Z,7.40
2023-01-22T09:46:47.457Z,7.50
2023-01-22T09:49:17.687Z,7.50
2023-01-22T09:51:50.417Z,7.50
2023-01-22T09:54:18.247Z,7.50
2023-01-22T09:56:50.402Z,7.50
2023-01-22T09:59:31.325Z,7.60
2023-01-22T10:02:35.410Z,7.70
2023-01-22T10:05:30.996Z,7.60
2023-01-22T10:08:15.423Z,7.70
2023-01-22T10:10:43.412Z,7.70
2023-01-22T10:13:33.796Z,7.70
2023-01-22T10:16:01.966Z,7.70
2023-01-22T10:18:40.408Z,7.80
2023-01-22T10:21:29.976Z,7.80
2023-01-22T10:23:58.351Z,7.80
2023-01-22T10:26:40.961Z,7.90
2023-01-22T10:29:45.953Z,7.90
2023-01-22T10:32:16.684Z,7.90
2023-01-22T10:34:44.349Z,7.90
2023-01-22T10:37:18.964Z,7.80
2023-01-22T10:39:52.829Z,7.90
2023-01-22T10:42:23.178Z,7.90
2023-01-22T10:44:57.127Z,7.90
2023-01-22T10:47:27.742Z,7.90
2023-01-22T10:50:15.059Z,8.00
2023-01-22T10:52:54.967Z,8.10
2023-01-22T10:55:28.051Z,8.20
2023-01-22T10:58:13.718Z,8.20
2023-01-22T11:00:51.840Z,8.40
2023-01-22T11:03:21.659Z,8.70
2023-01-22T11:05:55.628Z,8.80
2023-01-22T11:08:27.289Z,8.80
2023-01-22T11:10:59.191Z,8.90
2023-01-22T11:13:35.723Z,9.00
2023-01-22T11:16:16.467Z,9.20
2023-01-22T11:18:49.586Z,9.20
2023-01-22T11:21:30.041Z,9.40
2023-01-22T11:24:00.565Z,9.50
2023-01-22T11:26:40.980Z,9.60
2023-01-22T11:29:11.345Z,9.70
2023-01-22T11:31:50.382Z,9.90
2023-01-22T11:34:50.531Z,10.00
2023-01-22T11:37:25.949Z,10.00
2023-01-22T11:40:32.027Z,10.10
2023-01-22T11:43:30.491Z,10.30
2023-01-22T11:46:20.861Z,10.50
2023-01-22T11:49:16.701Z,10.70
2023-01-22T11:52:02.518Z,10.80
2023-01-22T11:54:57.542Z,10.80
2023-01-22T11:57:33.283Z,10.80
2023-01-22T12:00:33.092Z,10.90
2023-01-22T12:03:21.783Z,10.90
2023-01-22T12:05:58.305Z,10.90
2023-01-22T12:09:02.431Z,11.00
2023-01-22T12:12:06.075Z,11.20
2023-01-22T12:14:52.333Z,11.30
2023-01-22T12:17:51.790Z,11.40
2023-01-22T12:20:38.615Z,11.30
2023-01-22T12:23:52.048Z,11.20
2023-01-22T12:26:31.680Z,11.20
2023-01-22T12:29:29.442Z,11.30
2023-01-22T12:32:10.912Z,11.40
2023-01-22T12:35:09.061Z,11.40
2023-01-22T12:37:45.299Z,11.50
2023-01-22T12:40:45.751Z,11.60
2023-01-22T12:43:13.552Z,11.70
2023-01-22T12:45:50.053Z,11.80
2023-01-22T12:48:32.029Z,11.70
2023-01-22T12:50:59.924Z,11.70
2023-01-22T12:53:35.976Z,11.80
2023-01-22T12:56:06.700Z,11.80
2023-01-22T12:58:37.267Z,11.70
2023-01-22T13:01:13.672Z,11.80
2023-01-22T13:03:42.354Z,11.70
2023-01-22T13:06:40.860Z,11.80
2023-01-22T13:09:25.894Z,11.70
2023-01-22T13:11:53.582Z,11.60
2023-01-22T13:14:26.948Z,11.80
2023-01-22T13:16:59.748Z,11.70
2023-01-22T13:19:39.394Z,11.90
2023-01-22T13:22:09.779Z,11.90
2023-01-22T13:24:48.118Z,12.10
2023-01-22T13:27:33.707Z,11.90
2023-01-22T13:30:19.895Z,11.50
2023-01-22T13:32:47.859Z,11.50
2023-01-22T13:35:18.916Z,11.40
2023-01-22T13:37:51.506Z,11.20
2023-01-22T13:40:23.586Z,11.40
2023-01-22T13:42:53.513Z,11.20
2023-01-22T13:45:30.585Z,11.30
2023-01-22T13:48:02.460Z,11.30
2023-01-22T13:50:32.610Z,11.20
2023-01-22T13:53:03.284Z,11.00
2023-01-22T13:55:31.472Z,11.10
2023-01-22T13:58:01.821Z,11.30
2023-01-22T14:00:34.709Z,11.30
2023-01-22T14:03:03.479Z,11.30
2023-01-22T14:05:34.824Z,11.40
2023-01-22T14:08:12.603Z,11.40
2023-01-22T14:10:44.244Z,11.30
2023-01-22T14:13:13.767Z,10.90
2023-01-22T14:15:42.634Z,10.70
2023-01-22T14:18:14.448Z,10.40
2023-01-22T14:20:46.722Z,10.30
2023-01-22T14:23:15.505Z,10.10
2023-01-22T14:25:54.516Z,9.90
2023-01-22T14:28:23.834Z,9.70
2023-01-22T14:30:52.101Z,9.60
2023-01-22T14:33:24.231Z,9.60
2023-01-22T14:35:53.192Z,9.50
2023-01-22T14:38:21.472Z,9.50
2023-01-22T14:40:49.248Z,9.50
2023-01-22T14:43:17.119Z,9.40
2023-01-22T14:45:46.310Z,9.30
2023-01-22T14:48:15.806Z,9.30
2023-01-22T14:50:44.043Z,9.30
2023-01-22T14:53:13.117Z,9.20
2023-01-22T14:55:45.837Z,9.20
2023-01-22T14:58:13.737Z,9.10
2023-01-22T15:00:41.426Z,9.10
2023-01-22T15:03:09.161Z,9.10
2023-01-22T15:05:36.804Z,9.20
2023-01-22T15:08:04.852Z,9.20
2023-01-22T15:10:32.616Z,9.10
2023-01-22T15:13:00.400Z,9.10
2023-01-22T15:15:28.761Z,9.00
2023-01-22T15:17:57.745Z,9.00
2023-01-22T15:20:25.847Z,8.90
2023-01-22T15:22:53.560Z,8.80
2023-01-22T15:25:21.278Z,8.70
2023-01-22T15:27:48.984Z,8.60
2023-01-22T15:30:17.020Z,8.60
2023-01-22T15:32:44.831Z,8.60
2023-01-22T15:35:12.500Z,8.60
2023-01-22T15:37:40.235Z,8.60
2023-01-22T15:40:10.311Z,8.60
2023-01-22T15:42:38.119Z,8.50
2023-01-22T15:45:06.863Z,8.50
2023-01-22T15:47:34.577Z,8.40
2023-01-22T15:50:02.256Z,8.40
2023-01-22T15:52:31.052Z,8.50
2023-01-22T15:54:58.760Z,8.60
2023-01-22T15:57:26.482Z,8.50
2023-01-22T15:59:54.141Z,8.50
2023-01-22T16:02:21.894Z,8.50
2023-01-22T16:04:49.587Z,8.50
2023-01-22T16:07:17.313Z,8.50
2023-01-22T16:09:45.017Z,8.60
2023-01-22T16:12:12.756Z,8.40
2023-01-22T16:14:40.659Z,8.50
2023-01-22T16:17:08.383Z,8.30
2023-01-22T16:19:36.139Z,8.20
2023-01-22T16:22:03.829Z,8.20
2023-01-22T16:24:31.568Z,8.30
2023-01-22T16:26:59.620Z,8.30
2023-01-22T16:29:27.324Z,8.40
2023-01-22T16:31:55.233Z,8.30
2023-01-22T16:34:23.326Z,8.30
2023-01-22T16:36:51.229Z,8.20
2023-01-22T16:39:20.851Z,8.20
2023-01-22T16:41:50.180Z,8.20
2023-01-22T16:44:20.270Z,8.20
2023-01-22T16:46:52.433Z,8.10
2023-01-22T16:49:33.988Z,8.00
2023-01-22T16:52:21.600Z,8.10
2023-01-22T16:54:50.881Z,8.00
2023-01-22T16:57:20.372Z,8.10
2023-01-22T16:59:48.164Z,8.10
2023-01-22T17:02:17.016Z,8.10
2023-01-22T17:04:45.198Z,8.00
2023-01-22T17:07:27.337Z,8.10
2023-01-22T17:10:00.624Z,8.10
2023-01-22T17:12:28.470Z,8.20
2023-01-22T17:14:58.294Z,8.10
2023-01-22T17:17:26.584Z,8.10
2023-01-22T17:19:54.463Z,8.00
2023-01-22T17:22:22.203Z,8.10
2023-01-22T17:24:52.716Z,8.10
2023-01-22T17:27:21.657Z,8.10
2023-01-22T17:32:47.840Z,8.10
2023-01-22T17:35:16.784Z,8.10
2023-01-22T17:37:45.715Z,8.00
2023-01-22T17:40:13.637Z,8.00
2023-01-22T17:42:41.414Z,7.90
2023-01-22T17:45:09.807Z,8.00
2023-01-22T17:47:42.301Z,7.90
2023-01-22T17:50:10.825Z,7.90
2023-01-22T17:52:39.121Z,7.90
2023-01-22T17:55:07.667Z,7.90
2023-01-22T17:57:35.436Z,7.90
2023-01-22T18:00:03.574Z,8.00
2023-01-22T18:02:35.450Z,8.00
2023-01-22T18:05:03.567Z,8.00
2023-01-22T18:07:31.899Z,8.00
2023-01-22T18:09:59.723Z,8.00
2023-01-22T18:12:27.607Z,8.00
2023-01-22T18:14:55.436Z,8.00
2023-01-22T18:17:23.510Z,7.90
2023-01-22T18:19:51.427Z,7.70
2023-01-22T18:22:19.161Z,7.80
2023-01-22T18:24:46.944Z,7.70
2023-01-22T18:27:16.762Z,7.70
2023-01-22T18:29:44.657Z,7.60
2023-01-22T18:32:12.539Z,7.60
2023-01-22T18:34:40.384Z,7.60
2023-01-22T18:37:08.294Z,7.50
2023-01-22T18:39:35.959Z,7.50
2023-01-22T18:42:04.269Z,7.60
2023-01-22T18:44:32.093Z,7.40
2023-01-22T18:47:02.320Z,7.50
2023-01-22T18:49:30.851Z,7.50
2023-01-22T18:52:01.093Z,7.60
2023-01-22T18:54:29.548Z,7.70
2023-01-22T18:56:57.635Z,7.80
2023-01-22T18:59:26.045Z,7.90
2023-01-22T19:01:54.134Z,7.70
2023-01-22T19:04:22.229Z,7.60
2023-01-22T19:06:52.354Z,7.40
2023-01-22T19:09:21.726Z,7.40
2023-01-22T19:11:52.514Z,7.30
2023-01-22T19:14:21.366Z,7.20
2023-01-22T19:16:53.767Z,7.20
2023-01-22T19:19:22.903Z,7.20
2023-01-22T19:21:55.596Z,7.30
2023-01-22T19:24:26.953Z,7.30
2023-01-22T19:26:56.117Z,7.40
2023-01-22T19:29:25.552Z,7.50
2023-01-22T19:31:55.875Z,7.60
2023-01-22T19:34:25.594Z,7.60
2023-01-22T19:36:56.007Z,7.50
2023-01-22T19:39:25.675Z,7.40
2023-01-22T19:41:54.415Z,7.50
2023-01-22T19:44:22.622Z,7.50
2023-01-22T19:46:50.478Z,7.50
2023-01-22T19:49:18.378Z,7.60
2023-01-22T19:51:46.237Z,7.50
2023-01-22T19:54:14.344Z,7.60
2023-01-22T19:56:45.504Z,7.60
2023-01-22T19:59:18.532Z,7.60
2023-01-22T20:01:48.852Z,7.60
2023-01-22T20:04:30.879Z,7.50
2023-01-22T20:07:00.873Z,7.50
2023-01-22T20:09:30.927Z,7.50
2023-01-22T20:11:59.540Z,7.50
2023-01-22T20:14:30.727Z,7.50
2023-01-22T20:16:59.422Z,7.60
2023-01-22T20:19:27.740Z,7.50
2023-01-22T20:21:56.015Z,7.60
2023-01-22T20:24:23.935Z,7.50
2023-01-22T20:26:55.166Z,7.50
2023-01-22T20:29:23.350Z,7.50
2023-01-22T20:31:52.742Z,7.40
2023-01-22T20:34:21.017Z,7.30
2023-01-22T20:36:49.178Z,7.10
2023-01-22T20:39:17.181Z,7.00
2023-01-22T20:41:45.779Z,7.00
2023-01-22T20:44:14.190Z,6.80
2023-01-22T20:46:44.580Z,6.90
2023-01-22T20:49:14.887Z,6.90
2023-01-22T20:51:43.007Z,6.90
2023-01-22T20:54:11.409Z,6.90
2023-01-22T20:56:39.395Z,6.80
2023-01-22T20:59:12.077Z,6.80
2023-01-22T21:01:40.444Z,6.80
2023-01-22T21:04:08.884Z,6.80
2023-01-22T21:06:37.879Z,6.80
2023-01-22T21:09:07.837Z,6.90
2023-01-22T21:11:38.025Z,6.90
2023-01-22T21:14:07.890Z,6.80
2023-01-22T21:16:39.102Z,6.80
2023-01-22T21:19:13.282Z,6.70
2023-01-22T21:21:41.172Z,6.70
2023-01-22T21:24:09.221Z,6.70
2023-01-22T21:26:37.246Z,6.70
2023-01-22T21:29:09.121Z,6.70
2023-01-22T21:31:37.669Z,6.60
2023-01-22T21:34:08.006Z,6.60
2023-01-22T21:36:41.417Z,6.50
2023-01-22T21:39:14.642Z,6.40
2023-01-22T21:41:43.794Z,6.30
2023-01-22T21:44:33.094Z,6.20
2023-01-22T21:47:01.756Z,6.10
2023-01-22T21:49:30.304Z,6.10
2023-01-22T21:52:05.657Z,6.00
2023-01-22T21:54:37.199Z,6.20
2023-01-22T21:57:06.194Z,6.20
2023-01-22T21:59:35.644Z,6.40
2023-01-22T22:02:04.049Z,6.30
2023-01-22T22:04:34.601Z,6.30
2023-01-22T22:07:02.304Z,6.40
2023-01-22T22:09:30.884Z,6.50
2023-01-22T22:12:00.213Z,6.50
2023-01-22T22:14:28.112Z,6.60
2023-01-22T22:16:56.144Z,6.60
2023-01-22T22:19:24.542Z,6.70
2023-01-22T22:21:52.568Z,6.70
2023-01-22T22:24:21.358Z,6.60
2023-01-22T22:26:48.984Z,6.60
2023-01-22T22:29:16.845Z,6.50
2023-01-22T22:31:44.507Z,6.50
2023-01-22T22:34:12.398Z,6.50
2023-01-22T22:36:40.032Z,6.40
2023-01-22T22:39:07.822Z,6.40
2023-01-22T22:41:37.122Z,6.40
2023-01-22T22:44:05.487Z,6.40
2023-01-22T22:46:38.403Z,6.40
2023-01-22T22:49:06.496Z,6.40
2023-01-22T22:51:37.751Z,6.40
2023-01-22T22:54:16.399Z,6.50
2023-01-22T22:56:45.369Z,6.60
2023-01-22T22:59:14.302Z,6.50
2023-01-22T23:01:42.506Z,6.60
2023-01-22T23:04:13.979Z,6.60
2023-01-22T23:06:44.407Z,6.60
2023-01-22T23:09:22.459Z,6.50
2023-01-22T23:11:56.213Z,6.30
2023-01-22T23:14:23.984Z,6.30
2023-01-22T23:16:51.976Z,6.20
2023-01-22T23:19:25.544Z,6.20
2023-01-22T23:21:59.435Z,6.20
2023-01-22T23:24:28.105Z,6.20
2023-01-22T23:26:57.133Z,6.30
2023-01-22T23:29:27.071Z,6.20
2023-01-22T23:31:56.206Z,6.40
2023-01-22T23:34:24.140Z,6.50
2023-01-22T23:36:53.830Z,6.40
2023-01-22T23:39:22.263Z,6.40
2023-01-22T23:41:50.450Z,6.40
2023-01-22T23:44:18.226Z,6.30
2023-01-22T23:46:46.094Z,6.20
2023-01-22T23:49:13.985Z,6.10
2023-01-22T23:51:43.674Z,6.10
2023-01-22T23:54:14.978Z,6.00
2023-01-22T23:56:42.763Z,6.10
2023-01-22T23:59:11.457Z,6.20
